createdAt,value
2022-12-25T00:00:12.575Z,5.97
2022-12-25T00:02:41.587Z,5.60
2022-12-25T00:05:08.608Z,5.73
2022-12-25T00:07:34.750Z,5.90
2022-12-25T00:10:01.586Z,5.63
2022-12-25T00:12:28.027Z,5.43
2022-12-25T00:14:54.157Z,5.80
2022-12-25T00:17:20.308Z,5.60
2022-12-25T00:19:46.481Z,5.70
2022-12-25T00:22:12.736Z,5.70
2022-12-25T00:24:39.112Z,5.77
2022-12-25T00:27:05.968Z,5.30
2022-12-25T00:29:32.223Z,5.43
2022-12-25T00:31:58.495Z,5.60
2022-12-25T00:34:24.732Z,4.70
2022-12-25T00:36:51.043Z,5.23
2022-12-25T00:39:17.403Z,4.73
2022-12-25T00:42:02.138Z,5.33
2022-12-25T00:44:32.055Z,4.83
2022-12-25T00:46:58.369Z,5.03
2022-12-25T00:49:24.638Z,5.07
2022-12-25T00:51:51.754Z,5.03
2022-12-25T00:54:18.512Z,4.70
2022-12-25T00:56:44.797Z,4.07
2022-12-25T00:59:11.021Z,4.70
2022-12-25T01:01:38.802Z,4.70
2022-12-25T01:04:05.769Z,4.77
2022-12-25T01:06:32.545Z,4.20
2022-12-25T01:09:16.862Z,4.20
2022-12-25T01:11:43.529Z,4.70
2022-12-25T01:14:09.931Z,4.33
2022-12-25T01:16:41.049Z,3.90
2022-12-25T01:19:07.738Z,3.83
2022-12-25T01:21:33.929Z,4.00
2022-12-25T01:24:00.144Z,4.30
2022-12-25T01:26:26.997Z,5.43
2022-12-25T01:28:53.270Z,3.80
2022-12-25T01:31:22.694Z,3.43
2022-12-25T01:33:50.263Z,4.07
2022-12-25T01:36:17.796Z,4.00
2022-12-25T01:38:44.591Z,3.90
2022-12-25T01:41:11.948Z,4.10
2022-12-25T01:43:56.831Z,3.67
2022-12-25T01:46:23.117Z,4.40
2022-12-25T01:48:50.107Z,3.70
2022-12-25T01:51:28.199Z,3.93
2022-12-25T01:53:55.332Z,3.07
2022-12-25T01:56:21.814Z,3.70
2022-12-25T01:58:48.428Z,3.27
2022-12-25T02:01:14.777Z,4.20
2022-12-25T02:03:41.669Z,3.87
2022-12-25T02:06:08.909Z,3.40
2022-12-25T02:08:35.171Z,3.40
2022-12-25T02:11:01.413Z,3.80
2022-12-25T02:13:27.860Z,3.87
2022-12-25T02:16:07.881Z,3.70
2022-12-25T02:18:39.704Z,3.93
2022-12-25T02:21:19.087Z,3.90
2022-12-25T02:23:55.421Z,3.27
2022-12-25T02:26:33.047Z,4.03
2022-12-25T02:29:03.538Z,3.73
2022-12-25T02:31:34.491Z,3.80
2022-12-25T02:34:06.814Z,4.47
2022-12-25T02:36:38.313Z,4.17
2022-12-25T02:39:28.631Z,3.57
2022-12-25T02:41:56.278Z,3.77
2022-12-25T02:44:43.237Z,3.50
2022-12-25T02:47:28.623Z,3.33
2022-12-25T02:50:14.553Z,3.77
2022-12-25T02:53:00.624Z,3.13
2022-12-25T02:55:57.595Z,3.17
2022-12-25T02:58:42.689Z,4.10
2022-12-25T03:01:31.632Z,3.50
2022-12-25T03:04:18.810Z,2.90
2022-12-25T03:06:58.121Z,3.10
2022-12-25T03:09:45.333Z,3.30
2022-12-25T03:12:16.219Z,3.17
2022-12-25T03:15:00.513Z,3.57
2022-12-25T03:17:27.379Z,3.23
2022-12-25T03:20:11.953Z,3.97
2022-12-25T03:22:57.825Z,2.97
2022-12-25T03:25:42.634Z,3.30
2022-12-25T03:28:08.811Z,3.13
2022-12-25T03:30:59.247Z,3.57
2022-12-25T03:33:47.910Z,3.20
2022-12-25T03:36:18.992Z,2.80
2022-12-25T03:39:04.389Z,3.03
2022-12-25T03:41:56.131Z,3.30
2022-12-25T03:44:42.499Z,3.37
2022-12-25T03:47:38.653Z,3.10
2022-12-25T03:50:27.622Z,3.03
2022-12-25T03:53:13.043Z,2.63
2022-12-25T03:55:54.054Z,3.03
2022-12-25T03:58:40.457Z,3.33
2022-12-25T04:01:25.676Z,3.40
2022-12-25T04:04:10.081Z,3.60
2022-12-25T04:06:55.297Z,3.10
2022-12-25T04:09:39.544Z,2.73
2022-12-25T04:12:24.507Z,2.83
2022-12-25T04:15:08.881Z,2.73
2022-12-25T04:17:53.328Z,2.90
2022-12-25T04:20:37.785Z,2.70
2022-12-25T04:23:19.245Z,3.10
2022-12-25T04:26:02.955Z,3.40
2022-12-25T04:28:47.679Z,3.80
2022-12-25T04:31:32.105Z,2.87
2022-12-25T04:34:16.850Z,2.87
2022-12-25T04:36:43.109Z,3.00
2022-12-25T04:39:10.429Z,3.70
2022-12-25T04:41:36.701Z,2.90
2022-12-25T04:44:03.220Z,2.70
2022-12-25T04:46:29.473Z,2.70
2022-12-25T04:48:56.335Z,2.80
2022-12-25T04:51:24.113Z,2.70
2022-12-25T04:53:51.088Z,2.97
2022-12-25T04:56:18.462Z,2.87
2022-12-25T04:58:45.086Z,3.10
2022-12-25T05:01:14.854Z,3.10
2022-12-25T05:03:41.447Z,3.03
2022-12-25T05:06:07.752Z,3.00
2022-12-25T05:08:35.076Z,3.03
2022-12-25T05:11:05.679Z,3.53
2022-12-25T05:13:32.463Z,2.50
2022-12-25T05:15:58.721Z,3.00
2022-12-25T05:18:25.034Z,2.90
2022-12-25T05:20:52.159Z,3.00
2022-12-25T05:23:18.358Z,3.10
2022-12-25T05:25:44.591Z,2.47
2022-12-25T05:28:10.818Z,3.13
2022-12-25T05:30:37.754Z,3.10
2022-12-25T05:33:04.148Z,2.90
2022-12-25T05:35:30.548Z,3.17
2022-12-25T05:37:57.081Z,2.80
2022-12-25T05:40:23.760Z,2.97
2022-12-25T05:42:50.004Z,3.20
2022-12-25T05:45:16.450Z,2.80
2022-12-25T05:47:43.300Z,2.57
2022-12-25T05:50:09.660Z,2.30
2022-12-25T05:52:35.899Z,3.10
2022-12-25T05:55:02.158Z,3.07
2022-12-25T05:57:29.207Z,3.07
2022-12-25T05:59:55.504Z,2.60
2022-12-25T06:02:21.813Z,2.83
2022-12-25T06:04:48.698Z,2.77
2022-12-25T06:07:14.871Z,3.30
2022-12-25T06:09:41.190Z,2.87
2022-12-25T06:12:08.559Z,3.33
2022-12-25T06:14:34.921Z,2.80
2022-12-25T06:17:01.220Z,3.07
2022-12-25T06:19:27.533Z,2.80
2022-12-25T06:21:55.064Z,3.67
2022-12-25T06:24:21.833Z,2.63
2022-12-25T06:26:48.368Z,3.03
2022-12-25T06:29:14.624Z,2.73
2022-12-25T06:31:41.048Z,2.77
2022-12-25T06:34:07.729Z,2.67
2022-12-25T06:36:33.955Z,2.50
2022-12-25T06:39:01.276Z,2.43
2022-12-25T06:41:28.900Z,2.53
2022-12-25T06:43:56.927Z,2.53
2022-12-25T06:46:25.368Z,2.60
2022-12-25T06:48:52.285Z,2.27
2022-12-25T06:51:20.202Z,2.43
2022-12-25T06:53:46.538Z,2.20
2022-12-25T06:56:14.762Z,3.13
2022-12-25T06:58:42.546Z,2.10
2022-12-25T07:01:14.349Z,2.03
2022-12-25T07:03:41.698Z,2.17
2022-12-25T07:06:07.919Z,2.33
2022-12-25T07:08:34.212Z,1.80
2022-12-25T07:11:00.428Z,1.80
2022-12-25T07:13:27.254Z,2.77
2022-12-25T07:15:55.714Z,1.90
2022-12-25T07:18:21.935Z,1.93
2022-12-25T07:20:48.162Z,1.83
2022-12-25T07:23:14.366Z,1.63
2022-12-25T07:25:40.544Z,1.73
2022-12-25T07:28:06.697Z,1.60
2022-12-25T07:30:33.561Z,2.00
2022-12-25T07:32:59.868Z,1.90
2022-12-25T07:35:26.029Z,2.00
2022-12-25T07:37:52.159Z,2.00
2022-12-25T07:40:18.317Z,2.47
2022-12-25T07:42:44.512Z,6.87
2022-12-25T07:45:11.191Z,2.63
2022-12-25T07:47:38.926Z,3.00
2022-12-25T07:50:06.829Z,2.23
2022-12-25T07:52:38.050Z,2.33
2022-12-25T07:55:08.514Z,2.93
2022-12-25T07:57:35.773Z,2.40
2022-12-25T08:00:02.309Z,3.30
2022-12-25T08:02:28.973Z,2.50
2022-12-25T08:04:56.178Z,2.37
2022-12-25T08:07:22.610Z,2.60
2022-12-25T08:09:48.901Z,2.80
2022-12-25T08:12:15.226Z,2.77
2022-12-25T08:14:41.390Z,3.23
2022-12-25T08:17:07.954Z,3.23
2022-12-25T08:19:34.265Z,2.87
2022-12-25T08:22:01.150Z,3.47
2022-12-25T08:24:27.404Z,3.33
2022-12-25T08:26:53.639Z,3.60
2022-12-25T08:29:19.891Z,2.73
2022-12-25T08:31:46.756Z,2.83
2022-12-25T08:34:13.330Z,2.90
2022-12-25T08:36:40.747Z,2.87
2022-12-25T08:39:07.753Z,2.93
2022-12-25T08:41:35.647Z,2.60
2022-12-25T08:44:02.066Z,3.00
2022-12-25T08:46:28.648Z,2.83
2022-12-25T08:48:56.036Z,2.97
2022-12-25T08:51:23.722Z,2.70
2022-12-25T08:53:50.987Z,2.77
2022-12-25T08:56:18.940Z,3.03
2022-12-25T08:58:45.865Z,2.93
2022-12-25T09:01:12.937Z,3.47
2022-12-25T09:03:39.226Z,2.83
2022-12-25T09:06:07.528Z,3.40
2022-12-25T09:08:34.649Z,3.60
2022-12-25T09:11:02.074Z,2.93
2022-12-25T09:13:28.961Z,3.40
2022-12-25T09:15:55.690Z,3.10
2022-12-25T09:18:22.203Z,3.17
2022-12-25T09:20:57.238Z,2.80
2022-12-25T09:23:23.551Z,3.77
2022-12-25T09:25:49.795Z,2.93
2022-12-25T09:28:16.016Z,3.30
2022-12-25T09:30:42.939Z,3.20
2022-12-25T09:33:09.231Z,4.03
2022-12-25T09:35:39.533Z,3.73
2022-12-25T09:38:06.059Z,3.47
2022-12-25T09:40:32.289Z,3.27
2022-12-25T09:42:59.163Z,3.70
2022-12-25T09:45:29.287Z,3.70
2022-12-25T09:47:56.920Z,3.93
2022-12-25T09:50:28.114Z,3.60
2022-12-25T09:52:57.444Z,3.80
2022-12-25T09:55:25.517Z,3.80
2022-12-25T09:57:54.117Z,4.40
2022-12-25T10:00:22.455Z,3.90
2022-12-25T10:03:09.577Z,3.93
2022-12-25T10:05:56.424Z,4.00
2022-12-25T10:08:31.654Z,3.57
2022-12-25T10:11:02.856Z,4.00
2022-12-25T10:13:48.255Z,4.27
2022-12-25T10:16:21.899Z,4.00
2022-12-25T10:19:06.791Z,4.10
2022-12-25T10:21:33.346Z,3.80
2022-12-25T10:24:06.386Z,4.17
2022-12-25T10:26:33.944Z,3.87
2022-12-25T10:29:05.178Z,3.80
2022-12-25T10:31:35.215Z,3.97
2022-12-25T10:34:03.003Z,4.43
2022-12-25T10:36:30.189Z,4.40
2022-12-25T10:38:56.751Z,4.27
2022-12-25T10:41:34.485Z,4.53
2022-12-25T10:44:00.771Z,4.10
2022-12-25T10:46:28.276Z,4.17
2022-12-25T10:48:56.735Z,4.80
2022-12-25T10:51:32.667Z,4.43
2022-12-25T10:53:59.455Z,3.83
2022-12-25T10:56:25.886Z,5.00
2022-12-25T10:59:05.314Z,4.40
2022-12-25T11:01:32.117Z,4.27
2022-12-25T11:03:58.990Z,4.20
2022-12-25T11:06:27.848Z,5.33
2022-12-25T11:08:56.961Z,6.40
2022-12-25T11:11:24.453Z,4.80
2022-12-25T11:13:53.214Z,11.10
2022-12-25T11:16:29.445Z,6.63
2022-12-25T11:18:57.067Z,5.30
2022-12-25T11:21:25.370Z,5.90
2022-12-25T11:23:58.253Z,5.20
2022-12-25T11:26:25.123Z,4.67
2022-12-25T11:28:52.272Z,11.37
2022-12-25T11:31:20.245Z,14.07
2022-12-25T11:33:52.462Z,12.23
2022-12-25T11:36:23.991Z,4.67
2022-12-25T11:38:50.729Z,3.83
2022-12-25T11:41:19.808Z,4.20
2022-12-25T11:43:48.647Z,4.27
2022-12-25T11:46:19.320Z,3.63
2022-12-25T11:48:49.200Z,3.50
2022-12-25T11:51:16.205Z,3.50
2022-12-25T11:53:44.589Z,3.70
2022-12-25T11:56:14.878Z,3.80
2022-12-25T11:58:44.607Z,3.37
2022-12-25T12:01:16.359Z,4.00
2022-12-25T12:03:42.894Z,4.10
2022-12-25T12:06:16.273Z,4.30
2022-12-25T12:08:42.741Z,4.03
2022-12-25T12:11:16.443Z,4.27
2022-12-25T12:13:54.130Z,3.37
2022-12-25T12:16:20.475Z,4.00
2022-12-25T12:18:50.375Z,4.00
2022-12-25T12:21:21.396Z,4.07
2022-12-25T12:23:50.525Z,3.87
2022-12-25T12:26:19.063Z,4.50
2022-12-25T12:28:46.952Z,3.80
2022-12-25T12:31:13.626Z,4.10
2022-12-25T12:33:42.147Z,3.90
2022-12-25T12:36:11.242Z,4.20
2022-12-25T12:38:40.127Z,4.40
2022-12-25T12:41:07.555Z,4.30
2022-12-25T12:43:36.363Z,4.13
2022-12-25T12:46:07.891Z,4.27
2022-12-25T12:48:39.864Z,4.20
2022-12-25T12:51:07.674Z,4.27
2022-12-25T12:53:34.626Z,4.30
2022-12-25T12:56:12.169Z,4.73
2022-12-25T12:58:44.526Z,4.77
2022-12-25T13:01:33.648Z,4.10
2022-12-25T13:04:34.102Z,4.57
2022-12-25T13:07:14.830Z,4.33
2022-12-25T13:09:53.331Z,4.47
2022-12-25T13:12:20.419Z,5.00
2022-12-25T13:14:47.496Z,4.40
2022-12-25T13:17:17.566Z,4.83
2022-12-25T13:19:44.485Z,4.63
2022-12-25T13:22:23.565Z,4.50
2022-12-25T13:24:55.135Z,4.90
2022-12-25T13:27:23.184Z,5.10
2022-12-25T13:29:49.382Z,5.03
2022-12-25T13:32:21.397Z,5.60
2022-12-25T13:34:47.847Z,5.13
2022-12-25T13:37:16.262Z,5.40
2022-12-25T13:39:48.006Z,5.30
2022-12-25T13:42:16.149Z,5.57
2022-12-25T13:44:44.993Z,6.13
2022-12-25T13:47:18.200Z,5.90
2022-12-25T13:49:45.094Z,6.43
2022-12-25T13:52:12.663Z,6.40
2022-12-25T13:54:39.249Z,6.13
2022-12-25T13:57:07.857Z,7.20
2022-12-25T13:59:34.073Z,7.10
2022-12-25T14:02:00.463Z,6.10
2022-12-25T14:04:28.273Z,6.83
2022-12-25T14:06:54.650Z,7.00
2022-12-25T14:09:21.113Z,6.83
2022-12-25T14:11:49.824Z,6.37
2022-12-25T14:14:18.231Z,6.40
2022-12-25T14:16:47.930Z,6.90
2022-12-25T14:19:24.915Z,6.40
2022-12-25T14:21:55.266Z,7.13
2022-12-25T14:24:23.098Z,7.63
2022-12-25T14:26:56.736Z,6.90
2022-12-25T14:29:28.171Z,7.43
2022-12-25T14:31:57.404Z,7.30
2022-12-25T14:34:24.349Z,7.53
2022-12-25T14:36:52.062Z,6.87
2022-12-25T14:39:30.226Z,6.67
2022-12-25T14:41:56.672Z,7.53
2022-12-25T14:44:33.482Z,7.00
2022-12-25T14:47:04.303Z,7.23
2022-12-25T14:49:31.603Z,7.60
2022-12-25T14:51:57.970Z,7.10
2022-12-25T14:54:24.707Z,7.53
2022-12-25T14:56:55.793Z,7.20
2022-12-25T14:59:24.778Z,7.50
2022-12-25T15:01:53.372Z,6.43
2022-12-25T15:04:21.530Z,7.53
2022-12-25T15:06:53.343Z,6.73
2022-12-25T15:09:20.262Z,7.13
2022-12-25T15:11:47.685Z,6.60
2022-12-25T15:14:14.562Z,6.83
2022-12-25T15:16:42.259Z,7.00
2022-12-25T15:19:09.507Z,7.40
2022-12-25T15:21:36.409Z,6.33
2022-12-25T15:24:03.173Z,6.37
2022-12-25T15:26:31.243Z,7.30
2022-12-25T15:28:57.895Z,6.70
2022-12-25T15:31:26.125Z,6.50
2022-12-25T15:33:53.604Z,7.03
2022-12-25T15:36:19.871Z,7.03
2022-12-25T15:38:46.286Z,6.60
2022-12-25T15:41:35.134Z,6.67
2022-12-25T15:44:01.381Z,7.30
2022-12-25T15:46:28.311Z,6.43
2022-12-25T15:48:54.564Z,6.43
2022-12-25T15:51:25.371Z,8.10
2022-12-25T15:53:51.712Z,7.00
2022-12-25T15:56:18.219Z,7.70
2022-12-25T15:58:44.490Z,6.80
2022-12-25T16:01:13.731Z,6.50
2022-12-25T16:03:40.786Z,6.47
2022-12-25T16:06:08.948Z,6.30
2022-12-25T16:08:35.090Z,6.73
2022-12-25T16:11:04.467Z,7.20
2022-12-25T16:13:30.844Z,6.93
2022-12-25T16:15:57.381Z,7.10
2022-12-25T16:18:23.563Z,6.77
2022-12-25T16:20:50.630Z,6.53
2022-12-25T16:23:16.775Z,6.83
2022-12-25T16:25:43.011Z,6.33
2022-12-25T16:28:11.536Z,7.07
2022-12-25T16:30:38.351Z,7.23
2022-12-25T16:33:05.103Z,7.03
2022-12-25T16:35:31.683Z,7.37
2022-12-25T16:37:58.729Z,6.90
2022-12-25T16:40:25.100Z,6.73
2022-12-25T16:42:51.355Z,6.40
2022-12-25T16:45:17.771Z,6.10
2022-12-25T16:47:43.979Z,6.30
2022-12-25T16:50:10.574Z,6.63
2022-12-25T16:52:36.780Z,6.23
2022-12-25T16:55:04.334Z,6.60
2022-12-25T16:57:30.826Z,6.27
2022-12-25T16:59:57.151Z,6.43
2022-12-25T17:02:23.830Z,6.67
2022-12-25T17:04:50.206Z,7.37
2022-12-25T17:07:17.518Z,6.93
2022-12-25T17:09:46.955Z,7.50
2022-12-25T17:12:14.316Z,7.13
2022-12-25T17:14:40.593Z,7.43
2022-12-25T17:17:06.830Z,7.40
2022-12-25T17:19:33.102Z,6.80
2022-12-25T17:21:59.473Z,7.00
2022-12-25T17:24:25.970Z,6.70
2022-12-25T17:26:52.182Z,6.73
2022-12-25T17:29:22.331Z,6.80
2022-12-25T17:31:49.205Z,6.23
2022-12-25T17:34:15.398Z,6.63
2022-12-25T17:36:41.641Z,7.10
2022-12-25T17:39:07.908Z,6.80
2022-12-25T17:41:34.107Z,6.90
2022-12-25T17:44:00.479Z,6.63
2022-12-25T17:46:29.712Z,6.83
2022-12-25T17:49:00.295Z,6.67
2022-12-25T17:51:31.444Z,6.67
2022-12-25T17:53:59.343Z,6.37
2022-12-25T17:56:25.936Z,6.17
2022-12-25T17:58:53.333Z,6.50
2022-12-25T18:01:20.231Z,6.40
2022-12-25T18:03:47.194Z,6.67
2022-12-25T18:06:15.504Z,7.23
2022-12-25T18:08:42.679Z,6.70
2022-12-25T18:11:14.335Z,7.07
2022-12-25T18:13:42.544Z,6.83
2022-12-25T18:16:09.126Z,6.47
2022-12-25T18:18:36.537Z,6.70
2022-12-25T18:21:03.770Z,7.30
2022-12-25T18:23:29.973Z,6.93
2022-12-25T18:25:56.181Z,6.67
2022-12-25T18:28:22.441Z,6.63
2022-12-25T18:30:48.789Z,7.03
2022-12-25T18:33:15.102Z,7.00
2022-12-25T18:35:42.868Z,6.87
2022-12-25T18:38:10.552Z,7.13
2022-12-25T18:40:39.778Z,6.67
2022-12-25T18:43:06.754Z,7.20
2022-12-25T18:45:32.986Z,7.50
2022-12-25T18:48:02.465Z,8.00
2022-12-25T18:50:28.628Z,8.50
2022-12-25T18:52:55.197Z,8.23
2022-12-25T18:55:22.118Z,8.23
2022-12-25T18:57:48.743Z,8.13
2022-12-25T19:00:15.382Z,7.57
2022-12-25T19:02:41.619Z,7.00
2022-12-25T19:05:08.347Z,7.73
2022-12-25T19:07:35.561Z,7.10
2022-12-25T19:10:03.763Z,7.40
2022-12-25T19:12:30.646Z,7.47
2022-12-25T19:14:57.114Z,8.10
2022-12-25T19:17:29.619Z,7.60
2022-12-25T19:19:57.663Z,7.17
2022-12-25T19:22:23.828Z,7.77
2022-12-25T19:24:50.215Z,7.80
2022-12-25T19:27:16.399Z,7.90
2022-12-25T19:29:43.272Z,6.77
2022-12-25T19:32:09.584Z,7.27
2022-12-25T19:34:36.126Z,6.80
2022-12-25T19:37:03.027Z,7.13
2022-12-25T19:39:29.386Z,6.60
2022-12-25T19:41:55.675Z,6.67
2022-12-25T19:44:21.859Z,6.20
2022-12-25T19:46:49.400Z,5.10
2022-12-25T19:49:15.576Z,4.53
2022-12-25T19:51:43.156Z,4.10
2022-12-25T19:54:11.995Z,4.43
2022-12-25T19:56:38.331Z,4.27
2022-12-25T19:59:04.802Z,4.00
2022-12-25T20:01:31.335Z,4.47
2022-12-25T20:03:58.686Z,4.00
2022-12-25T20:06:28.018Z,4.70
2022-12-25T20:08:55.821Z,4.90
2022-12-25T20:11:23.584Z,4.93
2022-12-25T20:13:50.056Z,4.70
2022-12-25T20:16:16.371Z,4.47
2022-12-25T20:18:43.281Z,4.30
2022-12-25T20:21:13.252Z,4.30
2022-12-25T20:23:40.377Z,4.70
2022-12-25T20:26:07.380Z,4.77
2022-12-25T20:28:35.998Z,4.37
2022-12-25T20:31:05.661Z,5.37
2022-12-25T20:33:33.559Z,4.23
2022-12-25T20:36:01.690Z,4.97
2022-12-25T20:38:29.180Z,4.90
2022-12-25T20:41:25.628Z,5.23
2022-12-25T20:43:46.416Z,4.93
2022-12-25T20:46:13.161Z,4.50
2022-12-25T20:48:39.935Z,4.60
2022-12-25T20:51:07.553Z,4.57
2022-12-25T20:53:34.426Z,4.47
2022-12-25T20:56:01.785Z,4.70
2022-12-25T20:58:28.081Z,4.67
2022-12-25T21:00:54.553Z,4.40
2022-12-25T21:03:21.181Z,4.70
2022-12-25T21:05:51.165Z,4.20
2022-12-25T21:08:17.679Z,6.73
2022-12-25T21:10:49.635Z,5.60
2022-12-25T21:13:17.056Z,5.70
2022-12-25T21:15:44.059Z,6.70
2022-12-25T21:18:10.775Z,6.97
2022-12-25T21:20:37.385Z,6.67
2022-12-25T21:23:03.611Z,5.03
2022-12-25T21:25:29.874Z,4.93
2022-12-25T21:27:56.795Z,4.63
2022-12-25T21:30:23.003Z,4.63
2022-12-25T21:33:07.247Z,4.67
2022-12-25T21:35:35.660Z,4.10
2022-12-25T21:38:01.921Z,4.47
2022-12-25T21:40:28.271Z,3.87
2022-12-25T21:42:54.447Z,4.07
2022-12-25T21:45:21.234Z,3.87
2022-12-25T21:47:59.767Z,3.80
2022-12-25T21:50:47.272Z,3.70
2022-12-25T21:53:17.752Z,3.83
2022-12-25T21:55:55.547Z,4.17
2022-12-25T21:58:21.748Z,4.37
2022-12-25T22:00:48.665Z,5.20
2022-12-25T22:03:14.964Z,4.13
2022-12-25T22:06:01.623Z,4.77
2022-12-25T22:08:29.342Z,5.17
2022-12-25T22:10:55.667Z,5.50
2022-12-25T22:13:40.177Z,5.80
2022-12-25T22:16:25.908Z,5.73
2022-12-25T22:19:10.529Z,5.83
2022-12-25T22:21:36.723Z,5.63
2022-12-25T22:24:06.278Z,5.77
2022-12-25T22:26:32.638Z,5.47
2022-12-25T22:28:58.877Z,5.90
2022-12-25T22:31:25.996Z,5.87
2022-12-25T22:33:52.313Z,6.27
2022-12-25T22:36:18.565Z,5.80
2022-12-25T22:38:44.737Z,6.17
2022-12-25T22:41:10.963Z,6.80
2022-12-25T22:44:15.064Z,6.60
2022-12-25T22:46:23.611Z,6.47
2022-12-25T22:48:50.567Z,6.93
2022-12-25T22:51:16.789Z,6.60
2022-12-25T22:53:43.095Z,6.67
2022-12-25T22:56:09.244Z,6.93
2022-12-25T22:58:35.533Z,7.43
2022-12-25T23:01:02.205Z,6.67
2022-12-25T23:03:28.714Z,6.13
2022-12-25T23:05:56.714Z,6.20
2022-12-25T23:08:23.297Z,6.70
2022-12-25T23:10:49.769Z,6.43
2022-12-25T23:13:35.105Z,7.17
2022-12-25T23:16:01.390Z,6.50
2022-12-25T23:18:45.805Z,5.90
2022-12-25T23:21:31.729Z,6.33
2022-12-25T23:24:16.094Z,6.10
2022-12-25T23:26:42.427Z,6.17
2022-12-25T23:29:30.052Z,6.17
2022-12-25T23:31:57.446Z,5.40
2022-12-25T23:34:23.948Z,5.90
2022-12-25T23:36:53.503Z,5.83
2022-12-25T23:39:19.710Z,5.83
2022-12-25T23:41:45.847Z,5.93
2022-12-25T23:44:13.044Z,6.13
2022-12-25T23:46:39.781Z,5.33
2022-12-25T23:49:06.900Z,5.63
2022-12-25T23:51:34.531Z,5.83
2022-12-25T23:54:01.406Z,5.43
2022-12-25T23:56:27.739Z,4.83
2022-12-25T23:58:53.929Z,6.63
